Airfield :
LOGIN :

Register | Disclaimer

   EN    FR    IT 

 










Legend :    VFR   Marginal VFR   IFR   Intensive IFR   Very Intensive IFR
Visi :
Ceiling :
>= 8 km
>= 3000ft
5 to 8 km
1000 to 3000 ft
1500m to 5 km
500 to 1000 ft
800 to 1500m
200 to 500 ft
< 800m
< 200 ft
Symbols :   Thunderstorms  Fog  Heavy snow  Heavy precipitations  Wind > 20 kt
SIGMETs :     Misc.  Thunderstorms  Icing  Turbulence  Mountain Waves  Volcanic Ashes







- Airport Elevation : 412 ft
- IATA code : ORE
- Download approach charts


LFOJ - Orleans

CURRENT METAR :
  • 210230Z AUTO 04003KT 9000 NSC 10/09 Q1014

EXPIRED METARs :
  • 210200Z AUTO 03003KT CAVOK 10/09 Q1014
  • 210130Z AUTO 03004KT CAVOK 10/09 Q1014
  • 210100Z AUTO 35003KT CAVOK 10/09 Q1014
  • 210030Z AUTO 35004KT CAVOK 10/09 Q1015
  • 210000Z AUTO 35005KT CAVOK 10/08 Q1015

TAF TAF LFOJ
Valid from the 20 at 15:00 until the 21 at 15:00 UTC


201400Z 2015/2115 05010KT CAVOK
PROB30
TEMPO 2018/2021 4500 SHRA SCT050TCU
BECMG 2100/2103 3000 BR
BECMG 2107/2109 9999 NSW
PROB30
TEMPO 2113/2115 4000 SHRA SCT045TCU
No reported NOTAMs for that airfield.



MET'MAP, your aeronautical weather chart ! - Copyright ORBIFLY December 2007 - Disclaimer

ORBIFLY MET'MAP TEAM :

Programming & Development : Alexandra Zaïnal
Concept & Development : Baudouin d'Aumeries
Co-Development & Prog : Marc-Olivier Méhu
Technical & hardware support : Manuel Goepfert

Contact : metmap@orbifly.com




SOURCES & CREDITS :

   NOAA